Repulse Bay Airport
CYUT : now visible

Aeroporto :











RITROVATECI SU...

 
LOGIN :

Iscrizione | Disclaimer

   EN    FR    IT 

 









Sommario :    VFR   VFR Marginale   IFR   IFR Intensivo   IFR Molto Intensivo
Visibilità : 
Base nubi : 
>= 8 km
>= 3000ft
5 / 8 km
1000 / 3000 ft
1500m / 5 km
500 / 1000 ft
800 / 1500m
200 / 500 ft
< 800m
< 200 ft
Simboli :   Temporali  Nebbia  Neve Forte  Precipitazioni Forti  Vento > 20 kt






- Altitudine del aeroporto : 80 ft
- Codice IATA : YUT


CYUT - Repulse Bay

ULTIMO METAR :
  • 312000Z 29006KT 15SM BKN020 M01/M05 A2995 RMK SC6 LAST STFD OBS/NXT 011200Z SLP145

METARs OBSOLETI :
  • 311900Z 28005KT 240V330 15SM -SN BKN020 M01/M06 A2994 RMK SC7 SLP143
  • 311800Z 30005KT 250V320 15SM -SN BKN020 M02/M06 A2994 RMK SC7 SLP142

Previsioni scadute.
FIR CZEG / America del Nord



MetMap, La meteo Aeronautica in un colpo d'occhio ! - Copyright ORBIFLY Dicembre 2007 - Disclaimer

ORBIFLY MET'MAP TEAM :

Programmazione e sviluppo : Alexandra Zaïnal
Concezione : Baudouin d'Aumeries
Aiuto per la programmazione : Marc-Olivier Méhu
Supporto tecnico e logistico : Manuel Goepfert
Aiuto per la traduzione : Arnaldo La Scala

Contatto : metmap@orbifly.com




FONTI E CREDITI :

   NOAA       Earth
Advisory